Time;durP1;ratioP1;P1;durP2;ratioP2;P2;SDS_P1;SDS_P2;PMS_P1;PMS_P2;Temp;Humidity;BMP_temperature;BMP_pressure;BME280_temperature;BME280_humidity;BME280_pressure;Samples;Min_cycle;Max_cycle;Signal;HPM_P1;HPM_P2
2022/06/29 00:02:15;;;;;;;5.30;4.80;;;25.40;70.10;;;;;;5112606;28;20042;-58
2022/06/29 00:04:41;;;;;;;5.85;5.22;;;25.40;70.10;;;;;;5117718;27;20107;-58
2022/06/29 00:07:06;;;;;;;6.00;5.40;;;25.40;70.10;;;;;;5108530;28;20519;-58
2022/06/29 00:09:32;;;;;;;5.50;5.00;;;25.40;70.00;;;;;;5112437;28;20100;-58
2022/06/29 00:11:58;;;;;;;5.93;5.20;;;25.40;69.90;;;;;;5105170;28;20028;-58
2022/06/29 00:14:24;;;;;;;5.78;5.28;;;25.40;69.90;;;;;;5104208;28;20433;-58
2022/06/29 00:16:49;;;;;;;5.93;5.32;;;25.40;70.10;;;;;;5115663;28;20035;-58
2022/06/29 00:19:15;;;;;;;5.80;5.20;;;25.40;70.10;;;;;;5108379;28;20127;-58
2022/06/29 00:21:40;;;;;;;6.05;5.45;;;25.40;70.30;;;;;;5102720;28;20069;-58
2022/06/29 00:24:06;;;;;;;6.20;5.60;;;25.40;70.60;;;;;;5104912;28;20395;-58
2022/06/29 00:26:32;;;;;;;6.30;5.50;;;25.40;71.10;;;;;;5101651;28;20027;-58
2022/06/29 00:28:57;;;;;;;5.43;4.88;;;25.40;71.10;;;;;;5106926;28;20027;-58
2022/06/29 00:31:23;;;;;;;6.22;5.63;;;25.30;71.30;;;;;;5110053;28;20022;-58
2022/06/29 00:33:49;;;;;;;6.63;5.95;;;25.30;71.40;;;;;;5114487;28;20020;-57
2022/06/29 00:36:15;;;;;;;6.22;5.63;;;25.30;71.50;;;;;;5114470;28;20076;-58
2022/06/29 00:38:40;;;;;;;6.63;5.95;;;25.30;71.60;;;;;;5103755;28;20016;-58
2022/06/29 00:41:06;;;;;;;6.20;5.60;;;25.30;71.60;;;;;;5109226;28;20022;-58
2022/06/29 00:43:40;;;;;;;6.47;5.88;;;25.20;71.60;;;;;;5113546;28;20391;-58
2022/06/29 00:46:06;;;;;;;6.43;5.78;;;25.30;71.80;;;;;;5102899;28;20074;-58
2022/06/29 00:48:31;;;;;;;6.30;5.20;;;25.20;71.70;;;;;;5102363;28;20027;-58
2022/06/29 00:51:00;;;;;;;6.35;5.75;;;25.20;72.00;;;;;;5105790;28;20020;-58
2022/06/29 00:53:27;;;;;;;6.72;6.00;;;25.20;72.10;;;;;;5112864;28;20043;-58
2022/06/29 00:55:57;;;;;;;6.30;5.70;;;25.20;72.20;;;;;;5111025;28;20024;-58
2022/06/29 00:58:27;;;;;;;6.70;6.00;;;25.20;72.30;;;;;;5109655;28;20034;-58
2022/06/29 01:00:55;;;;;;;6.80;6.10;;;25.10;72.30;;;;;;5113637;28;20033;-58
2022/06/29 01:03:21;;;;;;;6.20;5.60;;;25.10;72.20;;;;;;5111719;28;20029;-58
2022/06/29 01:05:47;;;;;;;6.28;5.68;;;25.10;72.20;;;;;;5113636;28;20103;-58
2022/06/29 01:08:13;;;;;;;6.22;5.63;;;25.10;72.50;;;;;;5112233;28;20024;-58
2022/06/29 01:10:38;;;;;;;6.75;6.05;;;25.10;72.50;;;;;;5102042;28;20043;-58
2022/06/29 01:13:04;;;;;;;6.78;6.07;;;25.00;72.50;;;;;;5106696;28;20438;-58
2022/06/29 01:15:30;;;;;;;7.05;6.35;;;25.00;72.60;;;;;;5099687;28;20035;-58
2022/06/29 01:17:56;;;;;;;6.25;5.65;;;25.00;72.80;;;;;;5104913;28;20035;-58
2022/06/29 01:20:21;;;;;;;6.88;6.22;;;25.00;73.00;;;;;;5108768;28;20024;-58
2022/06/29 01:22:47;;;;;;;6.35;5.75;;;25.00;72.90;;;;;;5109380;27;20028;-58
2022/06/29 01:25:13;;;;;;;7.03;6.32;;;25.00;73.00;;;;;;5112546;28;20027;-58
2022/06/29 01:27:38;;;;;;;6.82;6.13;;;25.00;73.00;;;;;;5101003;28;20086;-58
2022/06/29 01:30:07;;;;;;;6.80;6.10;;;24.90;73.10;;;;;;5106920;28;20015;-58
2022/06/29 01:32:33;;;;;;;7.07;6.38;;;24.90;73.10;;;;;;5106607;28;20027;-58
2022/06/29 01:34:59;;;;;;;6.60;6.00;;;24.90;73.20;;;;;;5112349;28;20083;-58
2022/06/29 01:37:25;;;;;;;7.25;6.15;;;24.90;73.40;;;;;;5110103;28;20023;-58
2022/06/29 01:39:50;;;;;;;7.35;6.65;;;24.80;73.50;;;;;;5108406;28;20381;-58
2022/06/29 01:42:16;;;;;;;7.53;6.82;;;24.80;73.60;;;;;;5105668;27;20034;-58
2022/06/29 01:44:42;;;;;;;7.85;6.57;;;24.80;73.70;;;;;;5111712;28;20499;-58
2022/06/29 01:47:07;;;;;;;6.63;5.93;;;24.80;73.90;;;;;;5104669;28;20030;-58
2022/06/29 01:49:33;;;;;;;6.85;6.15;;;24.80;73.90;;;;;;5104959;28;20031;-58
2022/06/29 01:51:58;;;;;;;6.30;5.70;;;24.80;73.80;;;;;;5110138;28;20026;-58
2022/06/29 01:54:24;;;;;;;7.30;6.60;;;24.80;73.70;;;;;;5106291;28;20061;-58
2022/06/29 01:56:50;;;;;;;9.32;7.32;;;24.80;73.80;;;;;;5112607;28;20023;-58
2022/06/29 01:59:16;;;;;;;7.03;6.38;;;24.80;73.90;;;;;;5112604;28;20076;-58
2022/06/29 02:01:42;;;;;;;8.32;7.40;;;24.80;73.90;;;;;;5102025;28;20024;-58
2022/06/29 02:04:07;;;;;;;7.93;7.13;;;24.80;73.90;;;;;;5104307;28;20039;-58
2022/06/29 02:06:33;;;;;;;7.75;6.97;;;24.80;73.90;;;;;;5092283;28;20019;-58
2022/06/29 02:08:59;;;;;;;7.38;6.68;;;24.80;74.10;;;;;;5111914;28;20034;-58
2022/06/29 02:11:25;;;;;;;7.50;6.78;;;24.80;74.10;;;;;;5110114;28;20386;-57
2022/06/29 02:13:52;;;;;;;7.65;6.95;;;24.90;74.10;;;;;;5111135;28;20498;-58
2022/06/29 02:16:17;;;;;;;7.97;7.18;;;24.90;74.30;;;;;;5099552;28;20035;-58
2022/06/29 02:18:43;;;;;;;7.78;7.05;;;24.90;74.50;;;;;;5109309;28;20020;-58
2022/06/29 02:21:09;;;;;;;7.68;6.97;;;24.90;74.60;;;;;;5103787;28;20098;-58
2022/06/29 02:23:35;;;;;;;8.25;7.45;;;24.90;74.80;;;;;;5103652;28;20021;-58
2022/06/29 02:26:01;;;;;;;8.45;7.50;;;24.90;75.00;;;;;;5101338;28;20483;-58
2022/06/29 02:28:27;;;;;;;7.80;7.05;;;24.90;75.20;;;;;;5107076;28;20035;-58
2022/06/29 02:36:21;;;;;;;8.38;7.57;;;24.90;75.80;;;;;;5101885;28;20039;-58
2022/06/29 02:38:46;;;;;;;7.75;6.97;;;24.80;75.90;;;;;;5108558;28;20032;-58
2022/06/29 02:41:12;;;;;;;8.57;7.68;;;24.80;76.20;;;;;;5109686;28;20029;-56
2022/06/29 02:43:39;;;;;;;8.15;7.35;;;24.80;76.30;;;;;;5108868;28;20117;-58
2022/06/29 02:46:04;;;;;;;8.60;7.70;;;24.80;76.50;;;;;;5108354;28;20575;-58
2022/06/29 02:48:32;;;;;;;8.65;7.80;;;24.80;76.90;;;;;;5106777;28;20028;-57
2022/06/29 02:50:58;;;;;;;8.70;7.80;;;24.80;77.20;;;;;;5098915;28;20035;-58
2022/06/29 02:53:24;;;;;;;9.05;8.15;;;24.80;77.30;;;;;;5109839;28;20035;-58
2022/06/29 02:55:50;;;;;;;8.60;7.72;;;24.80;77.50;;;;;;5105915;28;20032;-57
2022/06/29 02:58:16;;;;;;;9.40;8.50;;;24.80;77.90;;;;;;5101743;28;20035;-58
2022/06/29 03:00:41;;;;;;;9.05;8.13;;;24.80;78.20;;;;;;5112062;28;20038;-57
2022/06/29 03:03:07;;;;;;;9.50;8.40;;;24.80;78.50;;;;;;5115412;28;20413;-57
2022/06/29 03:05:32;;;;;;;8.73;7.93;;;24.80;78.70;;;;;;5116811;28;20076;-58
2022/06/29 03:07:58;;;;;;;8.57;7.78;;;24.80;78.80;;;;;;5110006;28;20490;-58
2022/06/29 03:10:24;;;;;;;8.02;7.25;;;24.80;79.10;;;;;;5086779;28;20423;-58
2022/06/29 03:12:49;;;;;;;8.23;7.43;;;24.80;79.10;;;;;;5113895;28;20118;-58
2022/06/29 03:15:15;;;;;;;8.73;7.93;;;24.90;79.30;;;;;;5107981;28;20115;-58
2022/06/29 03:17:41;;;;;;;8.80;8.00;;;24.90;79.50;;;;;;5113256;28;20388;-58
2022/06/29 03:20:07;;;;;;;7.93;7.22;;;25.00;79.50;;;;;;5111844;28;20391;-58
2022/06/29 03:22:33;;;;;;;8.55;7.70;;;25.00;79.40;;;;;;5111022;27;20123;-58
2022/06/29 03:24:59;;;;;;;8.05;7.25;;;25.10;79.20;;;;;;5111290;28;20039;-58
2022/06/29 03:27:25;;;;;;;8.48;7.57;;;25.10;79.00;;;;;;5111699;28;20406;-58
2022/06/29 03:29:51;;;;;;;8.50;7.70;;;25.20;78.80;;;;;;5111998;28;20550;-58
2022/06/29 03:32:17;;;;;;;8.05;7.25;;;25.30;78.40;;;;;;5111566;28;20062;-58
2022/06/29 03:34:42;;;;;;;8.30;7.55;;;25.40;78.00;;;;;;5114447;27;20126;-58
2022/06/29 03:37:08;;;;;;;8.23;7.43;;;25.50;77.90;;;;;;5115231;28;20024;-58
2022/06/29 03:39:34;;;;;;;8.88;8.07;;;25.70;78.30;;;;;;5116083;28;20055;-58
2022/06/29 03:42:00;;;;;;;8.32;7.50;;;25.90;78.60;;;;;;5112763;28;20548;-58
2022/06/29 03:44:25;;;;;;;7.70;6.90;;;26.30;78.60;;;;;;5114178;28;20047;-58
2022/06/29 03:46:51;;;;;;;7.10;6.40;;;26.70;78.10;;;;;;5115095;28;20092;-58
2022/06/29 03:49:17;;;;;;;7.25;6.55;;;27.20;77.50;;;;;;5108006;28;20027;-58
2022/06/29 03:51:42;;;;;;;8.13;7.25;;;27.80;77.20;;;;;;5096029;28;20032;-58
2022/06/29 03:54:08;;;;;;;6.93;6.28;;;28.50;75.30;;;;;;5108643;28;20039;-58
2022/06/29 03:56:34;;;;;;;6.78;6.07;;;29.20;74.00;;;;;;5111957;28;20032;-58
2022/06/29 03:58:59;;;;;;;6.63;5.93;;;29.90;72.60;;;;;;5106629;28;20027;-57
2022/06/29 04:01:25;;;;;;;7.03;6.32;;;30.60;71.30;;;;;;5115971;28;20372;-58
2022/06/29 04:03:51;;;;;;;6.82;6.13;;;31.30;70.10;;;;;;5112031;28;20099;-58
2022/06/29 04:06:17;;;;;;;6.88;6.28;;;31.90;68.50;;;;;;5116018;28;20024;-58
2022/06/29 04:08:42;;;;;;;6.82;6.13;;;32.50;67.40;;;;;;5114985;28;20016;-58
2022/06/29 04:11:48;;;;;;;6.70;6.00;;;33.00;66.20;;;;;;5113074;28;20061;-59
2022/06/29 04:13:53;;;;;;;7.13;5.97;;;33.60;65.20;;;;;;5101862;28;20035;-58
2022/06/29 04:16:19;;;;;;;6.63;6.03;;;34.10;63.70;;;;;;5105833;28;20128;-58
2022/06/29 04:18:45;;;;;;;6.30;5.70;;;34.60;62.80;;;;;;5113892;28;20024;-58
2022/06/29 04:21:11;;;;;;;7.00;6.30;;;35.00;61.80;;;;;;5112615;28;20034;-58
2022/06/29 04:23:36;;;;;;;7.45;6.75;;;35.40;60.90;;;;;;5111150;28;20038;-57
2022/06/29 04:26:02;;;;;;;6.32;5.75;;;35.90;60.00;;;;;;5115474;28;20032;-58
2022/06/29 04:28:28;;;;;;;6.97;5.97;;;36.30;59.10;;;;;;5101779;28;20399;-58
2022/06/29 04:30:53;;;;;;;6.63;5.93;;;36.60;58.40;;;;;;5105826;28;20046;-58
2022/06/29 04:33:19;;;;;;;6.35;5.75;;;37.00;57.60;;;;;;5113475;28;20028;-58
2022/06/29 04:35:45;;;;;;;6.22;5.63;;;37.30;57.10;;;;;;5113767;28;20027;-58
2022/06/29 04:38:10;;;;;;;6.47;5.95;;;37.60;56.60;;;;;;5104271;28;20024;-57
2022/06/29 04:40:36;;;;;;;7.47;5.82;;;37.90;56.10;;;;;;5112888;28;20617;-58
2022/06/29 04:43:02;;;;;;;5.60;5.10;;;38.20;55.50;;;;;;5104465;28;20483;-58
2022/06/29 04:48:12;;;;;;;6.47;5.88;;;39.00;54.50;;;;;;5095456;28;20032;-58
2022/06/29 04:50:37;;;;;;;6.20;5.60;;;39.50;53.90;;;;;;5108313;28;20023;-59
2022/06/29 04:53:03;;;;;;;6.47;5.88;;;39.80;53.30;;;;;;5108971;28;20031;-59
2022/06/29 04:55:29;;;;;;;6.75;6.15;;;40.10;52.70;;;;;;5109759;27;20028;-58
2022/06/29 04:57:55;;;;;;;7.28;6.57;;;40.50;52.00;;;;;;5111619;28;20034;-58
2022/06/29 05:00:21;;;;;;;7.20;6.60;;;40.80;51.40;;;;;;5109083;28;20483;-58
2022/06/29 05:02:47;;;;;;;6.82;6.22;;;41.00;50.70;;;;;;5108225;28;20046;-58
2022/06/29 05:05:12;;;;;;;6.10;5.50;;;41.30;50.30;;;;;;5113042;28;20433;-58
2022/06/29 05:07:38;;;;;;;8.05;6.30;;;41.60;49.90;;;;;;5114333;28;20427;-58
2022/06/29 05:10:04;;;;;;;6.68;5.95;;;41.80;49.50;;;;;;5100431;28;20016;-58
2022/06/29 05:12:30;;;;;;;6.75;6.15;;;42.10;49.10;;;;;;5104978;28;20024;-58
2022/06/29 05:14:56;;;;;;;6.85;6.20;;;42.30;49.30;;;;;;5111253;28;20024;-58
2022/06/29 05:17:21;;;;;;;6.72;6.13;;;42.50;48.40;;;;;;5114407;28;20483;-58
2022/06/29 05:19:47;;;;;;;7.03;6.38;;;42.50;47.80;;;;;;5109451;28;20058;-57
2022/06/29 05:22:12;;;;;;;6.55;5.63;;;42.60;47.30;;;;;;5110797;27;20038;-58
2022/06/29 05:24:38;;;;;;;7.22;6.53;;;42.60;46.60;;;;;;5104694;28;20034;-58
2022/06/29 05:27:05;;;;;;;7.20;6.50;;;42.50;46.10;;;;;;5104139;28;20395;-58
2022/06/29 05:29:31;;;;;;;7.75;7.05;;;42.10;45.90;;;;;;5107320;27;20024;-58
2022/06/29 05:31:57;;;;;;;7.88;7.18;;;41.50;45.90;;;;;;5094712;28;20040;-58
2022/06/29 05:34:22;;;;;;;8.02;7.32;;;40.80;46.30;;;;;;5099672;28;20043;-58
2022/06/29 05:36:48;;;;;;;7.55;6.85;;;40.00;47.00;;;;;;5101797;27;20028;-58
2022/06/29 05:39:14;;;;;;;7.00;6.30;;;39.20;47.60;;;;;;5105821;28;20031;-58
2022/06/29 05:41:39;;;;;;;7.90;7.15;;;38.40;48.20;;;;;;5101282;28;20101;-58
2022/06/29 05:44:05;;;;;;;7.47;6.78;;;37.70;49.00;;;;;;5101786;27;20135;-57
2022/06/29 05:46:32;;;;;;;8.90;8.00;;;37.00;49.80;;;;;;5098466;28;20066;-58
2022/06/29 05:48:58;;;;;;;7.40;6.70;;;36.40;50.60;;;;;;5093133;28;20028;-58
2022/06/29 05:51:24;;;;;;;7.78;6.95;;;35.80;51.10;;;;;;5097378;28;21005;-58
2022/06/29 05:53:49;;;;;;;8.43;7.63;;;35.30;51.90;;;;;;5094267;28;20020;-58
2022/06/29 05:56:16;;;;;;;8.63;7.72;;;34.80;52.70;;;;;;5092504;28;20038;-58
2022/06/29 05:58:41;;;;;;;9.02;6.55;;;34.40;53.10;;;;;;5100241;28;20028;-58
2022/06/29 06:01:09;;;;;;;7.95;7.15;;;34.10;53.60;;;;;;5099757;28;20023;-58
2022/06/29 06:03:35;;;;;;;8.15;7.28;;;33.80;54.10;;;;;;5093185;27;20012;-58
2022/06/29 06:06:01;;;;;;;8.25;7.45;;;33.50;54.50;;;;;;5096190;27;20044;-58
2022/06/29 06:08:28;;;;;;;8.35;7.55;;;33.30;55.00;;;;;;5097054;27;20419;-58
2022/06/29 06:10:55;;;;;;;8.27;7.03;;;33.10;55.40;;;;;;5101930;28;20504;-58
2022/06/29 06:13:21;;;;;;;9.00;8.10;;;32.90;55.70;;;;;;5096015;28;20050;-58
2022/06/29 06:15:47;;;;;;;8.05;7.25;;;32.70;56.00;;;;;;5088801;28;20028;-59
2022/06/29 06:18:13;;;;;;;8.98;8.15;;;32.50;56.40;;;;;;5086528;27;20083;-58
2022/06/29 06:20:39;;;;;;;7.93;7.13;;;32.30;56.60;;;;;;5083921;28;20734;-58
2022/06/29 06:23:06;;;;;;;8.35;7.55;;;32.10;57.00;;;;;;5091617;27;20039;-58
2022/06/29 06:25:32;;;;;;;7.47;6.72;;;32.00;57.40;;;;;;5094152;27;20034;-58
2022/06/29 06:27:58;;;;;;;8.30;7.50;;;31.80;57.60;;;;;;5082550;28;20024;-58
2022/06/29 06:30:24;;;;;;;8.73;7.82;;;31.60;58.00;;;;;;5083589;27;20039;-58
2022/06/29 06:32:50;;;;;;;9.15;8.25;;;31.50;58.20;;;;;;5096601;27;20016;-59
2022/06/29 06:35:15;;;;;;;9.13;8.18;;;31.40;58.60;;;;;;5091189;27;20031;-59
2022/06/29 06:37:43;;;;;;;9.18;7.68;;;31.30;58.70;;;;;;5086440;27;20111;-58
2022/06/29 06:42:53;;;;;;;8.75;7.85;;;31.10;59.10;;;;;;5086327;28;20107;-58
2022/06/29 06:45:19;;;;;;;8.82;7.93;;;31.00;59.20;;;;;;5088108;28;20135;-59
2022/06/29 06:47:46;;;;;;;9.40;8.50;;;30.90;59.50;;;;;;5090346;28;20055;-59
2022/06/29 06:50:12;;;;;;;9.68;8.68;;;30.80;59.70;;;;;;5091096;28;20475;-58
2022/06/29 06:52:37;;;;;;;9.20;8.15;;;30.80;60.00;;;;;;5095680;28;20055;-58
2022/06/29 06:55:03;;;;;;;11.05;8.82;;;30.70;60.20;;;;;;5082336;28;20043;-58
2022/06/29 06:57:29;;;;;;;9.45;8.13;;;30.60;60.20;;;;;;5076950;28;20111;-58
2022/06/29 06:59:55;;;;;;;9.05;8.15;;;30.60;60.60;;;;;;5078333;28;20112;-56
2022/06/29 07:02:21;;;;;;;8.80;7.80;;;30.50;60.70;;;;;;5081756;28;20049;-58
2022/06/29 07:04:47;;;;;;;9.43;8.52;;;30.40;60.90;;;;;;5079601;28;20036;-58
2022/06/29 07:07:13;;;;;;;9.02;8.13;;;30.30;60.90;;;;;;5084627;28;20020;-59
2022/06/29 07:09:39;;;;;;;8.85;7.82;;;30.20;61.20;;;;;;5079889;28;20795;-59
2022/06/29 07:12:05;;;;;;;8.77;7.95;;;30.20;61.50;;;;;;5080877;28;20035;-59
2022/06/29 07:14:31;;;;;;;8.95;8.07;;;30.10;61.70;;;;;;5080449;28;20032;-59
2022/06/29 07:16:57;;;;;;;8.43;7.57;;;30.10;62.00;;;;;;5074497;28;20081;-59
2022/06/29 07:19:23;;;;;;;8.10;7.30;;;30.00;62.10;;;;;;5077308;28;20128;-59
2022/06/29 07:21:48;;;;;;;8.55;7.57;;;30.00;62.50;;;;;;5082241;28;20119;-59
2022/06/29 07:24:14;;;;;;;8.25;7.45;;;30.00;62.80;;;;;;5083274;28;20147;-58
2022/06/29 07:26:40;;;;;;;8.50;7.70;;;30.00;62.70;;;;;;5079473;28;20059;-59
2022/06/29 07:29:05;;;;;;;8.50;7.47;;;30.00;63.00;;;;;;5079658;28;20036;-56
2022/06/29 07:31:31;;;;;;;9.30;7.65;;;30.00;62.80;;;;;;5081163;28;20035;-59
2022/06/29 07:33:57;;;;;;;8.27;7.30;;;30.00;63.00;;;;;;5078907;28;20585;-59
2022/06/29 07:36:22;;;;;;;8.60;7.80;;;30.00;63.30;;;;;;5072965;28;20070;-58
2022/06/29 07:38:48;;;;;;;8.73;7.93;;;30.00;63.30;;;;;;5075663;28;20791;-59
2022/06/29 07:41:14;;;;;;;8.55;7.68;;;30.00;63.50;;;;;;5066857;28;20117;-58
2022/06/29 07:43:39;;;;;;;8.85;7.95;;;30.00;63.50;;;;;;5080532;28;20086;-58
2022/06/29 07:46:05;;;;;;;9.70;8.00;;;30.00;63.60;;;;;;5068504;28;20063;-58
2022/06/29 07:48:31;;;;;;;9.15;8.02;;;30.10;63.50;;;;;;5078893;27;22814;-59
2022/06/29 07:50:57;;;;;;;9.27;8.38;;;30.10;63.60;;;;;;5077685;27;20057;-59
2022/06/29 07:53:22;;;;;;;8.18;7.38;;;30.10;63.70;;;;;;5080284;27;20048;-58
2022/06/29 07:55:48;;;;;;;8.27;7.47;;;30.10;63.70;;;;;;5072383;27;20024;-59
2022/06/29 07:58:15;;;;;;;8.02;7.32;;;30.10;63.90;;;;;;5076511;27;20027;-59
2022/06/29 08:00:41;;;;;;;8.52;7.72;;;30.10;64.00;;;;;;5076267;27;20036;-60
2022/06/29 08:03:07;;;;;;;8.25;7.45;;;30.10;64.10;;;;;;5074553;27;20055;-59
2022/06/29 08:05:34;;;;;;;8.60;7.80;;;30.10;64.00;;;;;;5076062;27;20028;-58
2022/06/29 08:08:00;;;;;;;8.55;7.72;;;30.10;64.80;;;;;;5072614;27;20027;-58
2022/06/29 08:10:25;;;;;;;8.25;7.45;;;30.10;64.00;;;;;;5078510;27;20042;-59
2022/06/29 08:12:51;;;;;;;8.02;7.22;;;30.10;64.20;;;;;;5079630;27;20031;-59
2022/06/29 08:15:17;;;;;;;7.78;7.07;;;30.10;64.10;;;;;;5077880;27;20059;-59
2022/06/29 08:17:44;;;;;;;8.45;7.65;;;30.10;64.20;;;;;;5085187;27;20032;-58
2022/06/29 08:20:10;;;;;;;7.90;7.10;;;30.00;64.10;;;;;;5078818;27;20167;-58
2022/06/29 08:22:35;;;;;;;9.18;8.27;;;30.00;64.20;;;;;;5082969;27;20023;-56
2022/06/29 08:25:02;;;;;;;7.90;6.82;;;30.10;64.50;;;;;;5082367;27;21114;-56
2022/06/29 08:27:27;;;;;;;8.30;7.47;;;30.10;64.60;;;;;;5076638;27;20762;-57
2022/06/29 08:29:54;;;;;;;8.98;8.13;;;30.00;64.50;;;;;;5071167;27;20123;-57
2022/06/29 08:32:20;;;;;;;7.93;7.22;;;30.00;64.70;;;;;;5080926;27;20024;-58
2022/06/29 08:34:46;;;;;;;8.13;7.32;;;29.90;64.80;;;;;;5077066;27;20023;-58
2022/06/29 08:37:12;;;;;;;9.30;8.40;;;29.90;64.80;;;;;;5074638;27;20052;-58
2022/06/29 08:39:37;;;;;;;8.95;8.05;;;29.90;65.10;;;;;;5081833;28;20063;-60
2022/06/29 08:42:05;;;;;;;7.85;7.05;;;29.80;65.20;;;;;;5084485;27;20030;-59
2022/06/29 08:44:33;;;;;;;8.07;7.28;;;29.70;65.50;;;;;;5085672;27;20094;-59
2022/06/29 08:47:01;;;;;;;8.68;7.70;;;29.60;65.50;;;;;;5085300;27;20119;-59
2022/06/29 08:49:27;;;;;;;8.88;7.97;;;29.60;65.60;;;;;;5081054;27;20020;-59
2022/06/29 08:51:56;;;;;;;8.23;7.43;;;29.50;65.60;;;;;;5077097;27;20027;-58
2022/06/29 08:54:26;;;;;;;7.53;6.73;;;29.50;65.50;;;;;;5064110;28;20032;-59
2022/06/29 08:56:54;;;;;;;7.07;6.38;;;29.50;65.50;;;;;;5082156;27;20410;-58
2022/06/29 08:59:23;;;;;;;7.88;7.07;;;29.40;65.40;;;;;;5059215;27;20039;-59
2022/06/29 09:01:50;;;;;;;7.90;7.10;;;29.40;65.20;;;;;;5062125;27;20028;-59
2022/06/29 09:04:16;;;;;;;7.03;6.32;;;29.40;64.90;;;;;;5079004;27;20024;-59
2022/06/29 09:06:42;;;;;;;7.20;6.50;;;29.40;64.90;;;;;;5072359;27;20066;-59
2022/06/29 09:09:07;;;;;;;6.43;5.82;;;29.50;64.70;;;;;;5078369;27;21904;-58
2022/06/29 09:11:34;;;;;;;6.72;6.03;;;29.50;64.90;;;;;;5079115;27;20095;-58
2022/06/29 09:14:22;;;;;;;6.18;5.57;;;29.50;64.70;;;;;;5071977;27;20062;-60
2022/06/29 09:16:57;;;;;;;7.50;6.45;;;29.60;64.20;;;;;;5074128;27;20513;-58
2022/06/29 09:19:36;;;;;;;5.25;4.75;;;29.60;64.10;;;;;;5060834;27;20061;-58
2022/06/29 09:22:03;;;;;;;6.65;6.00;;;29.70;63.60;;;;;;5074182;27;20492;-58
2022/06/29 09:24:32;;;;;;;5.93;5.32;;;29.70;63.00;;;;;;5072592;27;20040;-59
2022/06/29 09:27:03;;;;;;;6.43;5.70;;;29.80;62.60;;;;;;5078375;27;20028;-57
2022/06/29 09:29:35;;;;;;;5.70;5.13;;;29.80;62.40;;;;;;5083151;27;20031;-57
2022/06/29 09:32:01;;;;;;;6.63;5.82;;;29.80;62.20;;;;;;5075698;27;20859;-58
2022/06/29 09:34:28;;;;;;;6.72;5.65;;;29.80;62.00;;;;;;5060086;28;20070;-59
2022/06/29 09:36:58;;;;;;;6.05;5.45;;;29.80;61.60;;;;;;5078776;27;20503;-59
2022/06/29 09:39:33;;;;;;;6.20;5.60;;;29.90;61.40;;;;;;5068357;27;20065;-58
2022/06/29 09:41:58;;;;;;;5.90;5.30;;;29.90;61.20;;;;;;5068988;27;20032;-59
2022/06/29 09:44:24;;;;;;;5.78;5.28;;;29.90;61.00;;;;;;5077765;27;20067;-59
2022/06/29 09:46:55;;;;;;;5.90;5.32;;;29.90;60.90;;;;;;5055529;27;20031;-59
2022/06/29 09:49:26;;;;;;;5.65;5.10;;;29.90;60.60;;;;;;5069792;27;20122;-59
2022/06/29 09:51:58;;;;;;;5.47;4.93;;;30.00;60.80;;;;;;5079451;28;20027;-59
2022/06/29 09:54:26;;;;;;;5.47;4.95;;;30.00;60.80;;;;;;5071003;27;20096;-59
2022/06/29 09:56:56;;;;;;;6.85;6.15;;;30.00;61.00;;;;;;5073751;27;20041;-59
2022/06/29 10:02:34;;;;;;;6.00;5.40;;;30.00;60.60;;;;;;5070958;27;20051;-58
2022/06/29 10:05:04;;;;;;;5.70;5.10;;;30.00;60.80;;;;;;5071973;27;20035;-58
2022/06/29 10:07:31;;;;;;;6.25;5.65;;;30.00;61.10;;;;;;5072668;27;20025;-58
2022/06/29 10:09:59;;;;;;;6.50;5.65;;;30.00;61.20;;;;;;5065011;28;20485;-58
2022/06/29 10:15:46;;;;;;;6.57;5.82;;;29.90;61.70;;;;;;5052988;27;20135;-59
2022/06/29 10:18:31;;;;;;;6.22;5.63;;;29.90;62.40;;;;;;5055402;27;20398;-58
2022/06/29 10:20:58;;;;;;;6.60;5.95;;;29.80;62.10;;;;;;5078824;27;20089;-59
2022/06/29 10:23:47;;;;;;;7.50;6.80;;;29.80;62.30;;;;;;5076842;28;20779;-59
2022/06/29 10:26:32;;;;;;;6.93;6.23;;;29.80;62.20;;;;;;5076683;28;20032;-59
2022/06/29 10:29:10;;;;;;;6.63;6.03;;;29.70;62.10;;;;;;5064805;27;20641;-59
2022/06/29 10:31:50;;;;;;;7.30;6.60;;;29.70;62.50;;;;;;5074617;28;20023;-59
2022/06/29 10:34:31;;;;;;;7.38;6.60;;;29.70;62.20;;;;;;5069008;27;20058;-60
2022/06/29 10:37:03;;;;;;;6.85;6.15;;;29.60;62.20;;;;;;5075568;27;20039;-60
2022/06/29 10:39:48;;;;;;;6.55;5.95;;;29.60;62.60;;;;;;5085341;27;20077;-59
2022/06/29 10:45:14;;;;;;;6.72;5.75;;;29.50;62.70;;;;;;5076880;28;20059;-60
2022/06/29 10:47:43;;;;;;;8.93;6.47;;;29.50;62.50;;;;;;5074939;27;20054;-59
2022/06/29 10:50:23;;;;;;;6.68;6.07;;;29.50;62.40;;;;;;5067666;28;20024;-59
2022/06/29 10:52:50;;;;;;;6.83;6.13;;;29.50;62.60;;;;;;5070325;28;20032;-59
2022/06/29 10:55:17;;;;;;;6.15;5.55;;;29.40;62.30;;;;;;5086924;28;20335;-59
2022/06/29 10:57:45;;;;;;;5.95;5.35;;;29.40;62.30;;;;;;5078502;28;20032;-59
2022/06/29 11:00:29;;;;;;;7.28;6.57;;;29.40;62.30;;;;;;5080466;28;20028;-59
2022/06/29 11:02:55;;;;;;;5.47;4.78;;;29.40;62.10;;;;;;5081063;28;20027;-60
2022/06/29 11:05:21;;;;;;;7.97;6.05;;;29.50;62.10;;;;;;5085114;28;20073;-59
2022/06/29 11:13:24;;;;;;;6.40;5.80;;;29.40;61.90;;;;;;5074173;28;20086;-59
2022/06/29 11:15:58;;;;;;;6.00;5.40;;;29.40;62.10;;;;;;5072053;28;20035;-59
2022/06/29 11:18:28;;;;;;;6.25;5.65;;;29.40;61.90;;;;;;5066311;28;20035;-60
2022/06/29 11:21:02;;;;;;;6.97;6.28;;;29.40;61.80;;;;;;5079386;28;20076;-60
2022/06/29 11:23:37;;;;;;;6.50;5.90;;;29.40;61.60;;;;;;5081984;27;20031;-60
2022/06/29 11:26:06;;;;;;;5.32;4.82;;;29.40;61.60;;;;;;5089594;27;20155;-59
2022/06/29 11:28:36;;;;;;;6.40;5.80;;;29.40;61.80;;;;;;5083282;27;20027;-61
2022/06/29 11:31:09;;;;;;;6.82;5.38;;;29.40;61.70;;;;;;5080945;27;20511;-60
2022/06/29 11:33:39;;;;;;;5.80;5.20;;;29.40;61.60;;;;;;5079046;27;20647;-58
2022/06/29 11:36:27;;;;;;;6.13;5.45;;;29.40;61.70;;;;;;5080626;27;20028;-58
2022/06/29 11:39:03;;;;;;;7.03;6.38;;;29.40;61.80;;;;;;5082501;27;20040;-59
2022/06/29 11:44:24;;;;;;;6.68;5.97;;;29.40;61.30;;;;;;5077436;27;20103;-58
2022/06/29 11:46:51;;;;;;;6.53;5.90;;;29.40;61.20;;;;;;5068934;27;20679;-58
2022/06/29 11:52:03;;;;;;;6.20;5.60;;;29.30;61.50;;;;;;5077512;27;20088;-59
2022/06/29 11:54:39;;;;;;;7.68;6.22;;;29.30;61.30;;;;;;5078145;27;20036;-59
2022/06/29 11:57:09;;;;;;;6.85;5.90;;;29.30;61.00;;;;;;5078852;27;20023;-60
2022/06/29 11:59:35;;;;;;;6.07;5.47;;;29.30;61.00;;;;;;5084268;27;20063;-60
2022/06/29 12:02:01;;;;;;;6.78;5.07;;;29.30;61.00;;;;;;5076023;27;20027;-60
2022/06/29 12:04:32;;;;;;;6.45;5.85;;;29.30;60.90;;;;;;5080567;27;20028;-60
2022/06/29 12:07:21;;;;;;;5.25;4.75;;;29.30;61.00;;;;;;5083234;27;20028;-59
2022/06/29 12:09:48;;;;;;;5.70;5.20;;;29.30;61.20;;;;;;5080991;27;20196;-61
2022/06/29 12:12:14;;;;;;;6.07;5.32;;;29.30;61.30;;;;;;5077487;27;20032;-60
2022/06/29 12:14:41;;;;;;;5.90;5.28;;;29.30;61.50;;;;;;5084341;27;20023;-60
2022/06/29 12:17:09;;;;;;;5.93;5.32;;;29.30;61.90;;;;;;5086640;27;20040;-58
2022/06/29 12:19:35;;;;;;;7.25;5.90;;;29.30;62.10;;;;;;5080829;27;20042;-60
2022/06/29 12:22:02;;;;;;;6.55;5.93;;;29.30;62.50;;;;;;5074080;27;20057;-60
2022/06/29 12:24:29;;;;;;;6.05;5.45;;;29.30;62.70;;;;;;5082909;27;20031;-61
2022/06/29 12:26:54;;;;;;;6.15;5.55;;;29.30;62.80;;;;;;5083005;27;20055;-61
2022/06/29 12:29:20;;;;;;;6.55;5.88;;;29.20;62.80;;;;;;5082882;27;20491;-61
2022/06/29 12:31:46;;;;;;;7.13;6.25;;;29.20;62.90;;;;;;5079727;27;20064;-61
2022/06/29 12:34:14;;;;;;;6.32;5.72;;;29.20;63.10;;;;;;5066888;27;20036;-61
2022/06/29 12:36:40;;;;;;;6.47;5.68;;;29.20;62.80;;;;;;5081095;27;20097;-60
2022/06/29 12:39:07;;;;;;;6.10;5.50;;;29.20;62.80;;;;;;5086074;27;20387;-61
2022/06/29 12:41:35;;;;;;;6.78;5.50;;;29.20;62.70;;;;;;5089768;27;20032;-61
2022/06/29 12:44:02;;;;;;;6.25;5.43;;;29.10;62.40;;;;;;5080382;27;20197;-60
2022/06/29 12:46:29;;;;;;;6.30;5.70;;;29.10;62.40;;;;;;5071685;27;20038;-59
2022/06/29 12:48:56;;;;;;;5.78;5.18;;;29.10;62.20;;;;;;5089481;27;20081;-59
2022/06/29 12:51:22;;;;;;;7.35;6.63;;;29.10;62.20;;;;;;5084357;27;20408;-60
2022/06/29 12:53:47;;;;;;;5.80;5.30;;;29.10;62.00;;;;;;5079087;27;20080;-60
2022/06/29 12:56:13;;;;;;;5.88;5.38;;;29.10;62.20;;;;;;5082057;27;20836;-61
2022/06/29 12:58:39;;;;;;;7.53;6.82;;;29.10;62.60;;;;;;5084874;27;20039;-61
2022/06/29 13:01:05;;;;;;;5.78;5.18;;;29.10;62.80;;;;;;5071550;27;20036;-60
2022/06/29 13:03:31;;;;;;;5.63;5.13;;;29.10;62.80;;;;;;5076617;27;20052;-60
2022/06/29 13:05:56;;;;;;;5.85;5.25;;;29.10;62.20;;;;;;5071873;27;20173;-61
2022/06/29 13:08:22;;;;;;;5.47;4.97;;;29.10;62.00;;;;;;5067084;27;20038;-60
2022/06/29 13:10:48;;;;;;;6.38;5.78;;;29.10;61.90;;;;;;5071834;27;20150;-60
2022/06/29 13:13:14;;;;;;;6.15;5.55;;;29.10;61.70;;;;;;5079310;27;21667;-60
2022/06/29 13:15:40;;;;;;;6.07;5.43;;;29.10;61.90;;;;;;5074533;27;20058;-60
2022/06/29 13:18:05;;;;;;;6.40;5.70;;;29.10;61.50;;;;;;5081851;27;20528;-59
2022/06/29 13:20:31;;;;;;;6.03;5.43;;;29.10;61.70;;;;;;5079145;27;20057;-60